Αρχική σελίδα
METAR-TAF:

METAR-TAF

Αεροδρόμια :

Λα Παζ, Βολιβία

γεωγραφικό πλάτος: 16-31S, γεωγραφικό μήκος: 068-11W, υψόμετρο: 4058 μ

Παρών καιρός

Η αναφορά έγινε 55 λεπτά πριν, στις 03:10 UTC
Άνεμος 8 kt από Α
Θερμοκρασία 2°C
Υγρασία 100%
Πίεση 1040 hPa
Ορατότητα: 0500 μ
Λίγα νέφη σε ύψος 200 πόδια
Διάσπαρτα νέφη σε ύψος 800 πόδια
ομίχλη

METAR: SLLP 180310Z 09008KT 0500 FG FEW002 SCT008 02/02 Q1040

Χρόνος: 00:05 (04:05 UTC)

Πρόγνωση Καιρού

Η αναφορά έγινε 5 ώρες και 15 λεπτά πριν, στις 22:50 UTC
Η πρόγνωση ισχύει από τις 18 στις 00 UTC έως τις 18 στις 24 UTC
Άνεμος 5 kt από Α
Ορατότητα 10 χλμ και άνω
Λίγα νέφη σε ύψος 1500 πόδια
Προσωρινά
από 18 στις 04 UTC έως τις 18 στις 07 UTC
Ορατότητα: 3000 μ
Λίγα νέφη σε ύψος 200 πόδια
ομίχλη στην περιοχή

TAF: SLLP 172250Z 1800/1824 10005KT 9999 FEW015 TX15/1820Z TNM03/1810Z TEMPO 1804/1807 3000E VCFG FEW002

Μετεωρολογικές αναφορές και προγνώσεις για περισσότερα από 4000 αεροδρόμια (δελτία METAR και TAF).

Οι διαθέσιμοι σταθμοί απεικονίζονται στο χάρτη με κίτρινες και κόκκινες κουκκίδες.

Μετακινήστε το ποντίκι πάνω από τις κουκκίδες για να δείτε το όνομα του σταθμού.

Στη συνέχεια, κάντε κλικ για να δείτε τις μετεωρολογικές αναφορές και τις προγνώσεις καιρού.

Για να αλλάξετε το χάρτη: κάντε κλικ στα πράσινα κουμπιά με τον μαύρο σταυρό για να ζουμάρετε, στο πράσινο κουμπί με την παύλα για να αφαιρέσετε το ζουμ ή στα πράσινα βέλη για να αντιπαραβάλλετε χάρτες.


METAR-TAF: